Time;durP1;ratioP1;P1;durP2;ratioP2;P2;SDS_P1;SDS_P2;PMS_P1;PMS_P2;Temp;Humidity;BMP_temperature;BMP_pressure;BME280_temperature;BME280_humidity;BME280_pressure;Samples;Min_cycle;Max_cycle;Signal;HPM_P1;HPM_P2
2023/08/01 00:01:02;;;;;;;;;;;27.60;60.00;;;;;;5045063;28;43043;-94
2023/08/01 00:03:27;;;;;;;;;;;27.60;59.90;;;;;;5044918;28;43692;-86
2023/08/01 00:05:54;;;;;;;;;;;27.60;60.00;;;;;;5044786;28;42994;-89
2023/08/01 00:08:20;;;;;;;;;;;27.60;60.00;;;;;;5033720;28;43581;-90
2023/08/01 00:10:46;;;;;;;;;;;27.60;60.10;;;;;;5047157;28;43043;-85
2023/08/01 00:13:12;;;;;;;;;;;27.60;61.00;;;;;;5046193;28;43066;-93
2023/08/01 00:15:37;;;;;;;;;;;27.70;63.00;;;;;;5034880;28;42819;-91
2023/08/01 00:18:03;;;;;;;;;;;27.60;62.30;;;;;;5028323;28;43493;-84
2023/08/01 00:20:28;;;;;;;;;;;27.60;60.00;;;;;;5027304;28;42820;-83
2023/08/01 00:22:54;;;;;;;;;;;27.70;61.00;;;;;;5028694;28;43805;-86
2023/08/01 00:25:19;;;;;;;;;;;27.60;59.90;;;;;;5033495;28;43012;-91
2023/08/01 00:27:45;;;;;;;;;;;27.60;60.50;;;;;;5030992;28;43974;-94
2023/08/01 00:30:10;;;;;;;;;;;27.50;60.30;;;;;;5031088;28;42880;-86
2023/08/01 00:32:36;;;;;;;;;;;27.40;60.80;;;;;;5028630;28;43103;-83
2023/08/01 00:35:02;;;;;;;;;;;27.50;61.40;;;;;;5042455;28;43018;-92
2023/08/01 00:37:28;;;;;;;;;;;27.50;62.60;;;;;;5054497;28;44171;-93
2023/08/01 00:39:53;;;;;;;;;;;27.50;60.80;;;;;;5049778;28;43054;-84
2023/08/01 00:42:19;;;;;;;;;;;28.30;63.70;;;;;;5046518;28;44337;-84
2023/08/01 00:44:46;;;;;;;;;;;27.50;62.50;;;;;;5050397;28;43127;-93
2023/08/01 00:47:12;;;;;;;;;;;27.30;64.00;;;;;;5049738;28;43181;-84
2023/08/01 00:49:38;;;;;;;;;;;27.40;60.90;;;;;;5027816;28;42857;-94
2023/08/01 00:52:04;;;;;;;;;;;27.40;65.60;;;;;;5038227;28;42747;-95
2023/08/01 00:54:35;;;;;;;;;;;27.50;63.50;;;;;;5038816;28;43415;-85
2023/08/01 00:57:00;;;;;;;;;;;27.50;60.40;;;;;;5046539;28;43477;-87
2023/08/01 00:59:26;;;;;;;;;;;27.50;60.00;;;;;;5040790;28;43072;-89
2023/08/01 01:01:51;;;;;;;;;;;27.40;59.10;;;;;;5025024;28;44938;-91
2023/08/01 01:04:17;;;;;;;;;;;27.40;63.70;;;;;;5027229;28;42928;-86
2023/08/01 01:06:48;;;;;;;;;;;27.50;63.70;;;;;;5025932;28;43134;-85
2023/08/01 01:09:17;;;;;;;;;;;27.50;59.40;;;;;;5035975;28;42880;-90
2023/08/01 01:11:43;;;;;;;;;;;27.50;59.50;;;;;;5044782;28;44666;-86
2023/08/01 01:14:09;;;;;;;;;;;27.40;63.80;;;;;;5046811;28;42851;-92
2023/08/01 01:16:35;;;;;;;;;;;27.50;60.10;;;;;;5047024;28;43646;-86
2023/08/01 01:19:00;;;;;;;;;;;27.40;60.00;;;;;;5044243;28;43102;-90
2023/08/01 01:21:26;;;;;;;;;;;27.40;60.00;;;;;;5046384;28;43393;-85
2023/08/01 01:23:52;;;;;;;;;;;27.30;60.00;;;;;;5046929;28;43011;-90
2023/08/01 01:26:21;;;;;;;;;;;27.30;59.90;;;;;;5047440;28;44261;-89
2023/08/01 01:28:47;;;;;;;;;;;27.30;59.90;;;;;;5047144;28;42879;-84
2023/08/01 01:31:13;;;;;;;;;;;27.30;59.90;;;;;;5044745;28;42866;-89
2023/08/01 01:33:39;;;;;;;;;;;27.20;59.90;;;;;;5046823;28;42958;-86
2023/08/01 01:36:04;;;;;;;;;;;27.30;60.30;;;;;;5046167;28;43646;-84
2023/08/01 01:38:30;;;;;;;;;;;27.40;62.20;;;;;;5047201;28;42982;-85
2023/08/01 01:40:55;;;;;;;;;;;27.30;60.50;;;;;;5045036;28;43206;-85
2023/08/01 01:43:21;;;;;;;;;;;27.30;60.30;;;;;;5046492;28;43079;-86
2023/08/01 01:45:46;;;;;;;;;;;27.30;59.40;;;;;;5044774;28;44602;-90
2023/08/01 01:48:12;;;;;;;;;;;27.40;60.10;;;;;;5046552;28;42968;-89
2023/08/01 01:50:37;;;;;;;;;;;27.90;60.70;;;;;;5046621;28;43903;-92
2023/08/01 01:53:03;;;;;;;;;;;27.30;60.40;;;;;;5026371;28;43165;-91
2023/08/01 01:55:29;;;;;;;;;;;27.30;60.60;;;;;;5026190;28;43396;-93
2023/08/01 01:57:54;;;;;;;;;;;27.40;62.20;;;;;;5026345;28;42889;-92
2023/08/01 02:00:20;;;;;;;;;;;27.30;62.90;;;;;;5026965;28;42866;-92
2023/08/01 02:02:45;;;;;;;;;;;27.30;66.00;;;;;;5026151;28;43086;-92
2023/08/01 02:05:11;;;;;;;;;;;27.30;60.90;;;;;;5024366;28;43603;-86
2023/08/01 02:07:36;;;;;;;;;;;27.30;63.60;;;;;;5024675;28;42802;-93
2023/08/01 02:10:02;;;;;;;;;;;27.40;61.10;;;;;;5031109;28;43724;-92
2023/08/01 02:12:31;;;;;;;;;;;27.30;60.90;;;;;;5045233;28;42950;-86
2023/08/01 02:14:57;;;;;;;;;;;27.40;61.20;;;;;;5043516;28;45796;-90
2023/08/01 02:17:22;;;;;;;;;;;27.40;61.20;;;;;;5045010;28;43107;-86
2023/08/01 02:19:48;;;;;;;;;;;27.30;65.10;;;;;;5043934;28;43240;-86
2023/08/01 02:22:13;;;;;;;;;;;27.30;65.50;;;;;;5045083;28;43047;-92
2023/08/01 02:24:39;;;;;;;;;;;27.10;64.80;;;;;;5044981;28;43653;-85
2023/08/01 02:27:04;;;;;;;;;;;27.30;63.80;;;;;;5044658;28;42928;-87
2023/08/01 02:29:30;;;;;;;;;;;27.20;65.50;;;;;;5043557;28;43930;-85
2023/08/01 02:31:56;;;;;;;;;;;27.10;64.00;;;;;;5043620;28;42880;-93
2023/08/01 02:34:21;;;;;;;;;;;27.20;62.50;;;;;;5045455;28;42997;-88
2023/08/01 02:36:47;;;;;;;;;;;27.20;63.70;;;;;;5045741;28;42963;-88
2023/08/01 02:39:12;;;;;;;;;;;27.20;61.80;;;;;;5044806;28;42951;-92
2023/08/01 02:41:38;;;;;;;;;;;27.10;62.10;;;;;;5043121;28;42877;-92
2023/08/01 02:44:03;;;;;;;;;;;27.20;62.00;;;;;;5044522;28;42918;-92
2023/08/01 02:46:29;;;;;;;;;;;27.20;62.30;;;;;;5045294;28;42976;-87
2023/08/01 02:48:55;;;;;;;;;;;27.10;61.90;;;;;;5043621;28;44445;-87
2023/08/01 02:51:20;;;;;;;;;;;27.00;62.20;;;;;;5024330;28;43074;-87
2023/08/01 02:53:46;;;;;;;;;;;27.00;62.60;;;;;;5024666;28;44275;-92
2023/08/01 02:56:11;;;;;;;;;;;27.10;62.40;;;;;;5030330;28;43034;-95
2023/08/01 02:58:37;;;;;;;;;;;27.00;62.20;;;;;;5045334;28;44026;-93
2023/08/01 03:01:09;;;;;;;;;;;27.00;62.30;;;;;;5042473;28;43032;-93
2023/08/01 03:03:35;;;;;;;;;;;27.00;62.00;;;;;;5045251;28;43844;-94
2023/08/01 03:06:01;;;;;;;;;;;27.10;62.00;;;;;;5041456;28;42976;-92
2023/08/01 03:08:26;;;;;;;;;;;27.10;61.80;;;;;;5024427;28;43087;-88
2023/08/01 03:10:53;;;;;;;;;;;26.70;61.20;;;;;;5024376;28;42954;-86
2023/08/01 03:13:19;;;;;;;;;;;27.00;61.30;;;;;;5024486;28;42944;-92
2023/08/01 03:15:44;;;;;;;;;;;27.00;61.30;;;;;;5036534;28;42993;-94
2023/08/01 03:18:10;;;;;;;;;;;27.00;61.40;;;;;;5044377;28;43033;-85
2023/08/01 03:20:36;;;;;;;;;;;27.00;60.40;;;;;;5027889;28;43007;-88
2023/08/01 03:23:01;;;;;;;;;;;27.10;61.30;;;;;;5024961;28;42773;-94
2023/08/01 03:25:27;;;;;;;;;;;27.10;61.40;;;;;;5025768;28;42777;-92
2023/08/01 03:27:54;;;;;;;;;;;27.10;61.20;;;;;;5024820;28;43253;-85
2023/08/01 03:30:20;;;;;;;;;;;27.10;61.30;;;;;;5023813;28;42852;-85
2023/08/01 03:32:48;;;;;;;;;;;27.10;61.20;;;;;;5040839;28;43850;-94
2023/08/01 03:35:13;;;;;;;;;;;27.10;62.10;;;;;;5042770;28;43115;-91
2023/08/01 03:37:39;;;;;;;;;;;27.30;62.30;;;;;;5026096;28;43617;-87
2023/08/01 03:40:08;;;;;;;;;;;27.10;61.40;;;;;;5026002;28;43348;-86
2023/08/01 03:42:34;;;;;;;;;;;27.20;61.50;;;;;;5026596;28;42978;-88
2023/08/01 03:45:00;;;;;;;;;;;27.20;61.40;;;;;;5024304;28;42928;-86
2023/08/01 03:47:25;;;;;;;;;;;27.20;61.30;;;;;;5026038;28;43245;-87
2023/08/01 03:49:51;;;;;;;;;;;27.30;61.40;;;;;;5043499;28;43096;-86
2023/08/01 03:52:16;;;;;;;;;;;27.30;61.70;;;;;;5042828;28;43525;-86
2023/08/01 03:54:42;;;;;;;;;;;26.50;61.00;;;;;;5029582;28;42987;-87
2023/08/01 03:57:07;;;;;;;;;;;27.30;61.70;;;;;;5023785;28;42915;-88
2023/08/01 03:59:32;;;;;;;;;;;27.30;61.80;;;;;;5043284;28;42952;-84
2023/08/01 04:01:58;;;;;;;;;;;27.30;62.00;;;;;;5038341;28;43469;-84
2023/08/01 04:04:24;;;;;;;;;;;27.30;62.30;;;;;;5035305;28;44198;-85
2023/08/01 04:06:49;;;;;;;;;;;27.30;62.50;;;;;;5020832;28;43873;-84
2023/08/01 04:09:14;;;;;;;;;;;27.30;62.80;;;;;;5040462;28;43039;-88
2023/08/01 04:11:40;;;;;;;;;;;27.30;62.70;;;;;;5044949;28;42995;-93
2023/08/01 04:14:05;;;;;;;;;;;27.00;62.70;;;;;;5044828;28;42828;-92
2023/08/01 04:16:31;;;;;;;;;;;27.30;63.50;;;;;;5034064;28;42952;-92
2023/08/01 04:18:57;;;;;;;;;;;27.20;63.10;;;;;;5045247;28;42945;-93
2023/08/01 04:21:22;;;;;;;;;;;27.20;64.00;;;;;;5038254;28;43068;-87
2023/08/01 04:23:48;;;;;;;;;;;27.30;64.20;;;;;;5024563;28;42877;-93
2023/08/01 04:26:13;;;;;;;;;;;27.20;64.20;;;;;;5025085;28;42941;-84
2023/08/01 04:28:39;;;;;;;;;;;27.30;64.00;;;;;;5025307;28;42949;-85
2023/08/01 04:31:04;;;;;;;;;;;27.40;64.30;;;;;;5024456;28;43011;-92
2023/08/01 04:33:30;;;;;;;;;;;27.30;64.40;;;;;;5027861;28;42958;-93
2023/08/01 04:35:55;;;;;;;;;;;27.30;64.50;;;;;;5044879;28;43631;-88
2023/08/01 04:38:21;;;;;;;;;;;27.30;64.50;;;;;;5044461;28;42843;-85
2023/08/01 04:40:46;;;;;;;;;;;27.30;64.50;;;;;;5043872;28;42930;-94
2023/08/01 04:43:13;;;;;;;;;;;27.30;65.00;;;;;;5043270;28;42927;-94
2023/08/01 04:45:39;;;;;;;;;;;27.30;64.90;;;;;;5025789;28;42994;-89
2023/08/01 04:48:04;;;;;;;;;;;27.40;65.60;;;;;;5024870;28;42985;-87
2023/08/01 04:50:30;;;;;;;;;;;27.30;65.20;;;;;;5024733;28;43035;-92
2023/08/01 04:52:55;;;;;;;;;;;27.30;64.70;;;;;;5024915;28;42897;-87
2023/08/01 04:55:21;;;;;;;;;;;27.30;64.10;;;;;;5040573;28;42908;-93
2023/08/01 04:57:47;;;;;;;;;;;27.30;64.90;;;;;;5046483;28;42829;-88
2023/08/01 05:00:13;;;;;;;;;;;27.30;65.40;;;;;;5047465;28;42820;-94
2023/08/01 05:02:38;;;;;;;;;;;27.20;64.90;;;;;;5062265;28;43091;-92
2023/08/01 05:05:04;;;;;;;;;;;27.20;64.90;;;;;;5047081;28;44183;-90
2023/08/01 05:07:30;;;;;;;;;;;27.20;64.30;;;;;;5048074;28;43021;-91
2023/08/01 05:09:55;;;;;;;;;;;27.30;65.30;;;;;;5048144;28;42927;-93
2023/08/01 05:12:21;;;;;;;;;;;27.20;67.20;;;;;;5046099;28;42941;-93
2023/08/01 05:14:46;;;;;;;;;;;27.10;69.70;;;;;;5027534;28;42979;-92
2023/08/01 05:17:12;;;;;;;;;;;27.30;71.40;;;;;;5026819;28;42990;-83
2023/08/01 05:19:37;;;;;;;;;;;27.30;66.00;;;;;;5026695;28;43583;-83
2023/08/01 05:22:03;;;;;;;;;;;27.20;68.50;;;;;;5026739;28;42966;-88
2023/08/01 05:24:28;;;;;;;;;;;27.30;65.60;;;;;;5045430;28;43007;-83
2023/08/01 05:26:54;;;;;;;;;;;27.30;67.10;;;;;;5031333;28;43002;-94
2023/08/01 05:29:19;;;;;;;;;;;27.70;68.70;;;;;;5026645;28;43710;-91
2023/08/01 05:31:45;;;;;;;;;;;27.30;69.00;;;;;;5026783;28;43534;-90
2023/08/01 05:34:10;;;;;;;;;;;27.20;67.60;;;;;;5027449;28;43340;-92
2023/08/01 05:36:36;;;;;;;;;;;27.20;66.60;;;;;;5028153;28;42882;-85
2023/08/01 05:39:02;;;;;;;;;;;27.10;68.10;;;;;;5026623;28;43456;-92
2023/08/01 05:41:29;;;;;;;;;;;;;;;;;;5040164;28;43039;-88
2023/08/01 05:43:55;;;;;;;;;;;27.10;65.80;;;;;;5044932;28;44469;-91
2023/08/01 05:46:20;;;;;;;;;;;27.10;66.40;;;;;;5045284;28;42758;-94
2023/08/01 05:48:46;;;;;;;;;;;27.10;65.90;;;;;;5043363;28;43014;-94
2023/08/01 05:51:11;;;;;;;;;;;27.10;67.80;;;;;;5034895;28;43000;-86
2023/08/01 05:53:37;;;;;;;;;;;27.10;66.70;;;;;;5031639;28;43022;-94
2023/08/01 05:56:04;;;;;;;;;;;27.10;66.70;;;;;;5046355;28;42547;-94
2023/08/01 05:58:30;;;;;;;;;;;27.10;66.90;;;;;;5039919;28;42721;-94
2023/08/01 06:00:56;;;;;;;;;;;27.10;67.10;;;;;;5043978;28;43052;-91
2023/08/01 06:03:21;;;;;;;;;;;27.00;67.50;;;;;;5036476;28;43260;-86
2023/08/01 06:05:46;;;;;;;;;;;27.00;69.00;;;;;;5039075;28;42851;-95
2023/08/01 06:08:15;;;;;;;;;;;27.10;74.10;;;;;;5041405;28;42751;-88
2023/08/01 06:10:41;;;;;;;;;;;27.00;68.50;;;;;;5040127;28;42766;-94
2023/08/01 06:13:06;;;;;;;;;;;26.80;70.60;;;;;;5039171;28;42867;-94
2023/08/01 06:15:32;;;;;;;;;;;26.90;67.70;;;;;;5037421;28;42932;-93
2023/08/01 06:17:57;;;;;;;;;;;27.00;68.70;;;;;;5039618;28;42852;-86
2023/08/01 06:20:23;;;;;;;;;;;27.00;68.50;;;;;;5050848;28;42998;-92
2023/08/01 06:22:48;;;;;;;;;;;27.30;68.70;;;;;;5062661;28;43015;-85
2023/08/01 06:25:14;;;;;;;;;;;27.10;68.90;;;;;;5052860;28;42396;-84
2023/08/01 06:27:39;;;;;;;;;;;27.10;68.00;;;;;;5052084;28;43003;-84
2023/08/01 06:30:05;;;;;;;;;;;27.10;68.90;;;;;;5047554;28;42816;-84
2023/08/01 06:32:31;;;;;;;;;;;27.70;68.70;;;;;;5045697;28;43224;-93
2023/08/01 06:34:56;;;;;;;;;;;27.10;68.30;;;;;;5039823;28;42294;-93
2023/08/01 06:37:22;;;;;;;;;;;27.10;68.00;;;;;;5037831;28;43630;-84
2023/08/01 06:39:47;;;;;;;;;;;27.10;68.30;;;;;;5044205;28;42827;-90
2023/08/01 06:42:13;;;;;;;;;;;27.10;68.60;;;;;;5046215;28;42887;-93
2023/08/01 06:44:40;;;;;;;;;;;27.10;68.10;;;;;;5049506;28;43111;-95
2023/08/01 06:47:05;;;;;;;;;;;27.10;68.20;;;;;;5050665;28;42813;-87
2023/08/01 06:49:31;;;;;;;;;;;27.10;68.70;;;;;;5045547;28;42998;-86
2023/08/01 06:51:56;;;;;;;;;;;27.10;67.90;;;;;;5041921;28;42962;-85
2023/08/01 06:54:22;;;;;;;;;;;27.10;68.80;;;;;;5041173;28;42889;-94
2023/08/01 06:56:47;;;;;;;;;;;27.10;68.50;;;;;;5037618;28;43574;-95
2023/08/01 06:59:14;;;;;;;;;;;27.10;68.80;;;;;;5047732;28;43313;-94
2023/08/01 07:01:43;;;;;;;;;;;27.10;68.60;;;;;;5045495;28;43378;-92
2023/08/01 07:04:09;;;;;;;;;;;27.10;68.60;;;;;;5041770;28;42754;-85
2023/08/01 07:06:34;;;;;;;;;;;27.10;68.80;;;;;;5044870;28;43666;-84
2023/08/01 07:09:00;;;;;;;;;;;27.10;69.00;;;;;;5044916;28;43019;-92
2023/08/01 07:11:25;;;;;;;;;;;27.10;69.20;;;;;;5042430;28;42768;-92
2023/08/01 07:13:52;;;;;;;;;;;27.10;68.90;;;;;;5042960;28;42955;-90
2023/08/01 07:16:17;;;;;;;;;;;27.20;68.60;;;;;;5036334;28;45319;-85
2023/08/01 07:18:43;;;;;;;;;;;27.20;68.60;;;;;;5040074;28;43000;-94
2023/08/01 07:21:08;;;;;;;;;;;27.20;68.70;;;;;;5056642;28;42793;-95
2023/08/01 07:23:35;;;;;;;;;;;27.20;68.80;;;;;;5044799;28;43101;-87
2023/08/01 07:26:00;;;;;;;;;;;27.20;68.90;;;;;;5045847;28;42827;-89
2023/08/01 07:28:26;;;;;;;;;;;27.20;69.00;;;;;;5035125;28;43174;-87
2023/08/01 07:31:02;;;;;;;;;;;27.30;69.00;;;;;;5034389;28;43875;-85
2023/08/01 07:33:27;;;;;;;;;;;27.20;68.30;;;;;;5038696;28;42926;-83
2023/08/01 07:35:53;;;;;;;;;;;27.30;68.50;;;;;;5037029;28;42970;-84
2023/08/01 07:38:19;;;;;;;;;;;27.30;68.60;;;;;;5033037;28;42940;-84
2023/08/01 07:40:44;;;;;;;;;;;27.20;68.70;;;;;;5035648;28;42975;-86
2023/08/01 07:43:10;;;;;;;;;;;27.20;68.90;;;;;;5033968;28;43309;-84
2023/08/01 07:45:35;;;;;;;;;;;27.20;69.50;;;;;;5037823;28;43377;-85
2023/08/01 07:48:01;;;;;;;;;;;27.20;68.90;;;;;;5040055;28;42949;-84
2023/08/01 07:50:26;;;;;;;;;;;27.20;70.00;;;;;;5036493;28;44401;-85
2023/08/01 07:52:52;;;;;;;;;;;27.20;70.00;;;;;;5053332;28;42978;-86
2023/08/01 07:55:18;;;;;;;;;;;27.20;69.60;;;;;;5041538;28;42965;-84
2023/08/01 07:57:44;;;;;;;;;;;27.20;70.20;;;;;;5033281;28;43622;-84
2023/08/01 08:00:10;;;;;;;;;;;27.10;70.30;;;;;;5034600;28;43069;-84
2023/08/01 08:02:35;;;;;;;;;;;27.10;70.20;;;;;;5036587;28;42982;-83
2023/08/01 08:05:01;;;;;;;;;;;27.00;70.30;;;;;;5036941;28;43565;-84
2023/08/01 08:07:26;;;;;;;;;;;27.10;70.40;;;;;;5033287;28;42974;-83
2023/08/01 08:09:54;;;;;;;;;;;27.10;70.20;;;;;;5033244;28;43104;-83
2023/08/01 08:12:22;;;;;;;;;;;27.10;69.60;;;;;;5036920;28;42990;-85
2023/08/01 08:14:48;;;;;;;;;;;27.10;69.70;;;;;;5034984;28;43011;-83
2023/08/01 08:17:13;;;;;;;;;;;27.10;70.00;;;;;;5041446;28;43099;-84
2023/08/01 08:19:39;;;;;;;;;;;27.10;69.50;;;;;;5041964;28;43719;-83
2023/08/01 08:22:04;;;;;;;;;;;27.10;69.40;;;;;;5041783;28;42938;-84
2023/08/01 08:24:30;;;;;;;;;;;27.10;69.50;;;;;;5035720;28;43522;-83
2023/08/01 08:26:55;;;;;;;;;;;27.10;69.70;;;;;;5032357;28;43083;-84
2023/08/01 08:29:21;;;;;;;;;;;27.20;69.60;;;;;;5035293;28;43685;-81
2023/08/01 08:31:47;;;;;;;;;;;27.10;72.60;;;;;;5039647;28;43027;-84
2023/08/01 08:34:13;;;;;;;;;;;27.10;73.60;;;;;;5040721;28;42972;-83
2023/08/01 08:36:38;;;;;;;;;;;27.10;72.40;;;;;;5035678;28;42887;-84
2023/08/01 08:39:04;;;;;;;;;;;27.10;69.50;;;;;;5036843;28;42927;-84
2023/08/01 08:41:30;;;;;;;;;;;27.10;69.60;;;;;;5035862;28;42902;-84
2023/08/01 08:43:56;;;;;;;;;;;27.20;69.50;;;;;;5038295;28;44158;-84
2023/08/01 08:46:24;;;;;;;;;;;27.20;69.60;;;;;;5032860;28;43176;-84
2023/08/01 08:48:50;;;;;;;;;;;27.20;75.10;;;;;;5035675;28;43118;-84
2023/08/01 08:51:16;;;;;;;;;;;27.40;72.50;;;;;;5036357;28;43130;-84
2023/08/01 08:53:42;;;;;;;;;;;27.30;67.90;;;;;;5037775;28;43107;-84
2023/08/01 08:56:09;;;;;;;;;;;27.40;66.80;;;;;;5041967;28;42886;-84
2023/08/01 08:58:35;;;;;;;;;;;27.20;68.30;;;;;;5038162;28;43323;-83
2023/08/01 09:01:01;;;;;;;;;;;27.20;68.50;;;;;;5035785;28;42983;-83
2023/08/01 09:03:27;;;;;;;;;;;27.20;70.50;;;;;;5037181;28;43686;-83
2023/08/01 09:06:13;;;;;;;;;;;27.20;69.30;;;;;;5033836;28;43198;-84
2023/08/01 09:08:39;;;;;;;;;;;27.30;73.60;;;;;;5064596;28;44383;-82
2023/08/01 09:11:05;;;;;;;;;;;27.30;65.30;;;;;;5037573;28;42943;-83
2023/08/01 09:13:30;;;;;;;;;;;27.30;67.60;;;;;;5035637;28;43031;-82
2023/08/01 09:15:56;;;;;;;;;;;27.30;65.50;;;;;;5033293;28;43058;-83
2023/08/01 09:18:21;;;;;;;;;;;27.30;67.20;;;;;;5037050;28;43548;-83
2023/08/01 09:20:48;;;;;;;;;;;27.30;72.10;;;;;;5044021;28;42855;-83
2023/08/01 09:23:13;;;;;;;;;;;27.30;65.60;;;;;;5039115;28;43903;-83
2023/08/01 09:25:39;;;;;;;;;;;27.30;67.20;;;;;;5041339;28;43084;-84
2023/08/01 09:28:23;;;;;;;;;;;27.30;66.70;;;;;;5041833;28;43576;-83
2023/08/01 09:30:50;;;;;;;;;;;27.40;63.90;;;;;;5039227;28;43157;-83
2023/08/01 09:33:16;;;;;;;;;;;27.30;64.20;;;;;;5033641;28;43555;-83
2023/08/01 09:35:44;;;;;;;;;;;27.20;64.30;;;;;;5032349;28;43101;-83
2023/08/01 09:38:10;;;;;;;;;;;27.20;65.00;;;;;;5045450;28;42970;-83
2023/08/01 09:40:36;;;;;;;;;;;27.20;65.50;;;;;;5034217;28;42873;-86
2023/08/01 09:43:01;;;;;;;;;;;27.20;63.80;;;;;;5036559;28;43133;-86
2023/08/01 09:45:27;;;;;;;;;;;;;;;;;;5025257;28;42880;-91
2023/08/01 09:47:52;;;;;;;;;;;27.20;63.30;;;;;;5038426;28;42992;-86
2023/08/01 09:50:22;;;;;;;;;;;27.10;63.00;;;;;;5038462;28;42988;-86
2023/08/01 09:52:53;;;;;;;;;;;27.10;62.20;;;;;;5033904;28;44575;-85
2023/08/01 09:55:25;;;;;;;;;;;27.20;62.60;;;;;;5040529;28;42970;-86
2023/08/01 09:57:53;;;;;;;;;;;27.20;63.10;;;;;;5044746;28;42996;-89
2023/08/01 10:00:18;;;;;;;;;;;27.10;61.10;;;;;;5028337;28;42844;-85
2023/08/01 10:02:45;;;;;;;;;;;27.10;61.30;;;;;;5027832;28;42901;-84
2023/08/01 10:05:12;;;;;;;;;;;27.10;63.30;;;;;;5026022;28;42880;-85
2023/08/01 10:07:38;;;;;;;;;;;27.10;64.30;;;;;;5025241;28;43087;-88
2023/08/01 10:10:05;;;;;;;;;;;27.10;64.10;;;;;;5027050;28;43027;-85
2023/08/01 10:12:31;;;;;;;;;;;27.20;64.40;;;;;;5026121;28;43831;-85
2023/08/01 10:14:57;;;;;;;;;;;27.20;64.40;;;;;;5024769;28;43129;-85
2023/08/01 10:17:23;;;;;;;;;;;27.30;64.30;;;;;;5025899;28;42956;-85
2023/08/01 10:19:50;;;;;;;;;;;27.30;64.30;;;;;;5027079;28;43013;-85
2023/08/01 10:22:19;;;;;;;;;;;27.30;64.40;;;;;;5025625;28;43616;-87
2023/08/01 10:24:45;;;;;;;;;;;27.90;65.20;;;;;;5026133;28;42868;-85
2023/08/01 10:27:12;;;;;;;;;;;27.40;63.80;;;;;;5027085;28;43000;-85
2023/08/01 10:29:38;;;;;;;;;;;27.40;63.70;;;;;;5026239;28;42803;-85
2023/08/01 10:32:06;;;;;;;;;;;27.50;64.40;;;;;;5024638;28;43523;-84
2023/08/01 10:34:31;;;;;;;;;;;27.50;64.10;;;;;;5026450;28;42883;-85
2023/08/01 10:36:57;;;;;;;;;;;27.40;63.30;;;;;;5027058;28;42974;-85
2023/08/01 10:39:24;;;;;;;;;;;27.30;64.20;;;;;;5025631;28;42971;-85
2023/08/01 10:41:58;;;;;;;;;;;27.40;64.20;;;;;;5026058;28;43459;-84
2023/08/01 10:44:24;;;;;;;;;;;27.50;64.20;;;;;;5026530;28;43008;-89
2023/08/01 10:46:57;;;;;;;;;;;27.40;64.20;;;;;;5025035;28;44072;-84
2023/08/01 10:49:35;;;;;;;;;;;27.40;64.00;;;;;;5025983;28;42897;-86
2023/08/01 10:52:01;;;;;;;;;;;27.40;64.20;;;;;;5024577;28;43387;-84
2023/08/01 10:54:26;;;;;;;;;;;27.40;64.50;;;;;;5025300;28;42981;-84
2023/08/01 10:56:53;;;;;;;;;;;27.30;64.60;;;;;;5023998;28;45268;-84
2023/08/01 10:59:19;;;;;;;;;;;27.30;64.00;;;;;;5026546;28;43028;-84
2023/08/01 11:01:48;;;;;;;;;;;27.30;63.80;;;;;;5025349;28;42989;-84
2023/08/01 11:04:15;;;;;;;;;;;27.40;63.80;;;;;;5026032;28;42866;-84
2023/08/01 11:06:47;;;;;;;;;;;27.40;63.70;;;;;;5025048;28;43735;-89
2023/08/01 11:09:20;;;;;;;;;;;27.40;63.10;;;;;;5033167;28;42970;-86
2023/08/01 11:11:47;;;;;;;;;;;27.40;63.20;;;;;;5035989;28;43415;-86
2023/08/01 11:14:13;;;;;;;;;;;27.40;63.10;;;;;;5042378;28;42967;-89
2023/08/01 11:16:39;;;;;;;;;;;27.40;63.50;;;;;;5043884;28;42956;-88
2023/08/01 11:19:05;;;;;;;;;;;27.30;62.10;;;;;;5042351;28;42990;-88
2023/08/01 11:21:30;;;;;;;;;;;27.30;62.50;;;;;;5044789;28;42944;-88
2023/08/01 11:23:56;;;;;;;;;;;27.30;62.70;;;;;;5044909;28;42845;-87
2023/08/01 11:26:22;;;;;;;;;;;27.30;62.80;;;;;;5039248;28;43275;-85
2023/08/01 11:28:47;;;;;;;;;;;27.30;62.70;;;;;;5042695;28;42888;-85
2023/08/01 11:31:13;;;;;;;;;;;27.40;62.90;;;;;;5038682;28;44193;-86
2023/08/01 11:33:38;;;;;;;;;;;27.40;62.70;;;;;;5042969;28;43087;-92
2023/08/01 11:36:05;;;;;;;;;;;27.40;62.90;;;;;;5040842;28;43797;-91
2023/08/01 11:38:33;;;;;;;;;;;27.40;63.00;;;;;;5036071;28;43451;-87
2023/08/01 11:40:59;;;;;;;;;;;27.40;62.90;;;;;;5043602;28;42936;-89
2023/08/01 11:43:24;;;;;;;;;;;27.50;63.20;;;;;;5036719;28;43062;-91
2023/08/01 11:45:56;;;;;;;;;;;27.50;63.10;;;;;;5031821;28;42974;-91
2023/08/01 11:48:23;;;;;;;;;;;27.50;63.30;;;;;;5033160;28;43957;-88
2023/08/01 11:50:49;;;;;;;;;;;27.60;63.00;;;;;;5033469;28;43453;-89
2023/08/01 11:53:21;;;;;;;;;;;27.60;63.60;;;;;;5035750;28;43153;-89
2023/08/01 11:55:47;;;;;;;;;;;27.60;63.10;;;;;;5038042;28;43465;-90
2023/08/01 11:58:15;;;;;;;;;;;27.60;62.90;;;;;;5032855;28;42958;-87
2023/08/01 12:00:41;;;;;;;;;;;27.60;63.40;;;;;;5033319;28;42988;-90
2023/08/01 12:03:12;;;;;;;;;;;27.60;62.90;;;;;;5040746;28;43156;-90
2023/08/01 12:05:38;;;;;;;;;;;27.60;62.60;;;;;;5039796;28;43121;-90
2023/08/01 12:08:10;;;;;;;;;;;27.60;62.90;;;;;;5038186;28;43039;-87
2023/08/01 12:10:36;;;;;;;;;;;27.60;62.60;;;;;;5039849;28;43389;-87
2023/08/01 12:13:02;;;;;;;;;;;27.60;62.60;;;;;;5038034;28;42987;-91
2023/08/01 12:15:28;;;;;;;;;;;27.50;62.00;;;;;;5038763;28;44490;-90
2023/08/01 12:17:53;;;;;;;;;;;27.60;63.20;;;;;;5036907;28;43072;-88
2023/08/01 12:20:27;;;;;;;;;;;27.50;62.90;;;;;;5037405;28;43688;-90
2023/08/01 12:22:56;;;;;;;;;;;27.50;63.10;;;;;;5044203;28;61565;-88
2023/08/01 12:25:22;;;;;;;;;;;27.50;65.10;;;;;;5040379;28;43849;-85
2023/08/01 12:27:47;;;;;;;;;;;27.60;64.10;;;;;;5037630;28;43039;-85
2023/08/01 12:30:13;;;;;;;;;;;27.60;62.40;;;;;;5037420;28;43536;-90
2023/08/01 12:32:38;;;;;;;;;;;27.60;62.40;;;;;;5041332;28;42980;-90
2023/08/01 12:35:04;;;;;;;;;;;27.60;62.30;;;;;;5044756;28;43462;-90
2023/08/01 12:37:29;;;;;;;;;;;27.60;62.40;;;;;;5042034;28;43033;-84
2023/08/01 12:39:55;;;;;;;;;;;27.60;62.40;;;;;;5047520;28;42969;-85
2023/08/01 12:42:20;;;;;;;;;;;27.60;62.40;;;;;;5048708;28;42903;-90
2023/08/01 12:44:46;;;;;;;;;;;27.60;62.60;;;;;;5043882;28;43005;-92
2023/08/01 12:47:12;;;;;;;;;;;28.10;63.70;;;;;;5049484;28;43118;-88
2023/08/01 12:49:37;;;;;;;;;;;27.60;62.50;;;;;;5049502;28;42875;-84
2023/08/01 12:52:03;;;;;;;;;;;27.70;62.70;;;;;;5049610;28;43005;-89
2023/08/01 12:54:28;;;;;;;;;;;27.70;62.60;;;;;;5051363;28;43470;-92
2023/08/01 12:56:54;;;;;;;;;;;27.60;62.50;;;;;;5049114;28;43013;-88
2023/08/01 12:59:19;;;;;;;;;;;27.60;61.80;;;;;;5050391;28;45299;-90
2023/08/01 13:01:45;;;;;;;;;;;27.70;62.50;;;;;;5049822;28;42868;-92
2023/08/01 13:04:10;;;;;;;;;;;27.60;61.80;;;;;;5050163;28;43654;-91
2023/08/01 13:06:36;;;;;;;;;;;27.80;62.80;;;;;;5052250;28;42925;-89
2023/08/01 13:09:02;;;;;;;;;;;27.70;62.50;;;;;;5051529;28;43870;-92
2023/08/01 13:11:28;;;;;;;;;;;27.70;62.50;;;;;;5049008;28;42999;-92
2023/08/01 13:13:53;;;;;;;;;;;27.50;63.70;;;;;;5045685;28;45025;-92
2023/08/01 13:16:19;;;;;;;;;;;27.70;62.50;;;;;;5042414;28;43008;-85
2023/08/01 13:18:46;;;;;;;;;;;27.70;62.40;;;;;;5027153;28;43788;-91
2023/08/01 13:21:12;;;;;;;;;;;27.70;62.40;;;;;;5027304;28;42928;-91
2023/08/01 13:23:37;;;;;;;;;;;27.70;62.30;;;;;;5025429;28;45745;-93
2023/08/01 13:26:03;;;;;;;;;;;27.70;63.00;;;;;;5026111;28;43120;-92
2023/08/01 13:28:28;;;;;;;;;;;27.70;63.50;;;;;;5046200;28;42979;-92
2023/08/01 13:30:54;;;;;;;;;;;27.70;63.30;;;;;;5047652;28;42970;-92
2023/08/01 13:33:19;;;;;;;;;;;27.70;62.90;;;;;;5047606;28;43800;-92
2023/08/01 13:35:55;;;;;;;;;;;27.70;62.80;;;;;;5044488;28;42972;-91
2023/08/01 13:38:20;;;;;;;;;;;27.70;63.20;;;;;;5047295;28;43857;-92
2023/08/01 13:40:46;;;;;;;;;;;27.70;62.90;;;;;;5047252;28;42919;-84
2023/08/01 13:43:11;;;;;;;;;;;27.70;63.10;;;;;;5046016;28;43873;-91
2023/08/01 13:45:37;;;;;;;;;;;27.80;63.30;;;;;;5045332;28;42829;-87
2023/08/01 13:48:03;;;;;;;;;;;27.80;64.20;;;;;;5046525;28;42791;-85
2023/08/01 13:50:28;;;;;;;;;;;27.70;63.30;;;;;;5045540;28;42949;-92
2023/08/01 13:52:54;;;;;;;;;;;27.60;63.50;;;;;;5047195;28;43840;-90
2023/08/01 13:55:20;;;;;;;;;;;27.80;64.10;;;;;;5045357;28;43007;-91
2023/08/01 13:57:45;;;;;;;;;;;27.80;64.60;;;;;;5046322;28;43088;-84
2023/08/01 14:00:11;;;;;;;;;;;27.80;63.90;;;;;;5046544;28;42947;-92
2023/08/01 14:02:39;;;;;;;;;;;27.80;63.90;;;;;;5046827;28;43612;-89
2023/08/01 14:05:04;;;;;;;;;;;27.70;66.30;;;;;;5047270;28;42934;-92
2023/08/01 14:07:30;;;;;;;;;;;27.80;64.00;;;;;;5044728;28;42980;-92
2023/08/01 14:09:56;;;;;;;;;;;27.70;64.70;;;;;;5047131;28;42964;-92
2023/08/01 14:12:22;;;;;;;;;;;27.80;63.70;;;;;;5046764;28;43774;-85